Time;durP1;ratioP1;P1;durP2;ratioP2;P2;SDS_P1;SDS_P2;PMS_P1;PMS_P2;Temp;Humidity;BMP_temperature;BMP_pressure;BME280_temperature;BME280_humidity;BME280_pressure;Samples;Min_cycle;Max_cycle;Signal;HPM_P1;HPM_P2
2023/09/08 00:02:26;;;;;;;411.90;389.35;;;17.70;99.90;;;;;;6311414;22;20011;-87
2023/09/08 00:04:53;;;;;;;728.67;679.78;;;17.60;99.90;;;;;;6310496;22;20079;-87
2023/09/08 00:07:18;;;;;;;737.33;687.63;;;17.60;99.90;;;;;;6310379;22;20453;-87
2023/09/08 00:09:44;;;;;;;410.33;387.83;;;17.60;99.90;;;;;;6338807;22;20022;-86
2023/09/08 00:12:10;;;;;;;706.22;658.63;;;17.50;99.90;;;;;;6284952;22;20018;-87
2023/09/08 00:14:35;;;;;;;705.38;658.25;;;17.50;99.90;;;;;;6339004;22;20019;-86
2023/09/08 00:17:01;;;;;;;394.98;374.33;;;17.40;99.90;;;;;;6311087;22;20022;-87
2023/09/08 00:19:27;;;;;;;389.25;368.88;;;17.40;99.90;;;;;;6311430;22;20471;-87
2023/09/08 00:21:53;;;;;;;391.35;371.13;;;17.40;99.90;;;;;;6311203;22;20047;-86
2023/09/08 00:24:18;;;;;;;400.55;379.80;;;17.40;99.90;;;;;;6311898;22;20432;-85
2023/09/08 00:26:45;;;;;;;721.15;672.90;;;17.30;99.90;;;;;;6311130;22;20447;-86
2023/09/08 00:29:10;;;;;;;732.75;683.83;;;17.30;99.90;;;;;;6310818;22;20076;-86
2023/09/08 00:31:36;;;;;;;412.63;389.65;;;17.30;99.90;;;;;;6311251;22;20015;-86
2023/09/08 00:34:02;;;;;;;725.28;676.45;;;17.30;99.90;;;;;;6310993;22;20131;-86
2023/09/08 00:36:27;;;;;;;410.40;388.50;;;17.20;99.90;;;;;;6338263;22;20018;-86
2023/09/08 00:38:53;;;;;;;760.20;708.92;;;17.20;99.90;;;;;;6310828;22;20014;-86
2023/09/08 00:41:19;;;;;;;740.88;691.17;;;17.20;99.90;;;;;;6310752;22;20018;-87
2023/09/08 00:43:45;;;;;;;454.25;426.98;;;17.10;99.90;;;;;;6285411;22;20483;-86
2023/09/08 00:46:11;;;;;;;459.85;430.80;;;17.10;99.90;;;;;;6310861;22;20089;-86
2023/09/08 00:48:38;;;;;;;434.25;405.48;;;17.10;99.90;;;;;;6339025;22;20023;-86
2023/09/08 00:51:05;;;;;;;789.20;733.17;;;17.10;99.90;;;;;;6311002;22;20019;-86
2023/09/08 00:53:31;;;;;;;474.63;441.65;;;17.00;99.90;;;;;;6338315;22;20015;-86
2023/09/08 00:55:59;;;;;;;795.60;737.92;;;16.90;99.90;;;;;;6338917;22;20015;-86
2023/09/08 00:58:25;;;;;;;793.42;736.25;;;16.90;99.90;;;;;;6284803;22;20103;-87
2023/09/08 01:00:51;;;;;;;507.00;464.95;;;16.90;99.90;;;;;;6310824;22;20031;-86
2023/09/08 01:03:16;;;;;;;501.83;460.42;;;16.80;99.90;;;;;;6284595;22;20070;-87
2023/09/08 01:05:46;;;;;;;475.20;436.02;;;16.80;99.90;;;;;;6310162;22;20046;-87
2023/09/08 01:08:13;;;;;;;501.48;459.45;;;16.80;99.90;;;;;;6310282;22;20026;-87
2023/09/08 01:10:41;;;;;;;496.90;455.67;;;16.70;99.90;;;;;;6338072;22;20437;-87
2023/09/08 01:13:07;;;;;;;787.50;728.30;;;16.70;99.90;;;;;;6310783;22;20155;-87
2023/09/08 01:15:33;;;;;;;485.75;448.35;;;16.70;99.90;;;;;;6310495;22;20344;-86
2023/09/08 01:17:59;;;;;;;783.15;726.03;;;16.60;99.90;;;;;;6310357;22;20094;-86
2023/09/08 01:20:35;;;;;;;481.25;445.80;;;16.70;99.90;;;;;;6310280;22;20094;-87
2023/09/08 01:23:21;;;;;;;490.52;451.00;;;16.60;99.90;;;;;;6284257;22;20019;-87
2023/09/08 01:26:04;;;;;;;472.77;436.67;;;16.60;99.90;;;;;;6338493;22;20011;-86
2023/09/08 01:28:31;;;;;;;430.13;398.67;;;16.50;99.90;;;;;;6310386;22;20286;-87
2023/09/08 01:30:57;;;;;;;772.90;717.92;;;16.50;99.90;;;;;;6310423;22;20429;-86
2023/09/08 01:33:23;;;;;;;767.60;713.17;;;16.50;99.90;;;;;;6310071;22;20023;-86
2023/09/08 01:35:50;;;;;;;420.63;392.10;;;16.50;99.90;;;;;;6338026;22;20092;-86
2023/09/08 01:38:16;;;;;;;765.42;711.70;;;16.40;99.90;;;;;;6338023;22;20097;-86
2023/09/08 01:40:42;;;;;;;443.50;414.88;;;16.40;99.90;;;;;;6311505;22;20019;-87
2023/09/08 01:43:07;;;;;;;751.95;700.28;;;16.40;99.90;;;;;;6286150;22;20015;-87
2023/09/08 01:45:33;;;;;;;390.15;365.92;;;16.40;99.90;;;;;;6340080;22;20014;-87
2023/09/08 01:47:59;;;;;;;730.17;680.65;;;16.30;99.90;;;;;;6340022;22;20019;-86
2023/09/08 01:50:25;;;;;;;755.92;703.63;;;16.30;99.90;;;;;;6339645;22;20025;-86
2023/09/08 01:52:51;;;;;;;404.27;379.05;;;16.30;99.90;;;;;;6311853;22;20098;-86
2023/09/08 01:55:17;;;;;;;375.67;353.90;;;16.20;99.90;;;;;;6339924;22;20341;-87
2023/09/08 01:57:44;;;;;;;418.20;393.15;;;16.20;99.90;;;;;;6312125;22;20046;-86
2023/09/08 02:00:11;;;;;;;731.65;681.67;;;16.20;99.90;;;;;;6312284;22;20013;-86
2023/09/08 02:02:36;;;;;;;724.67;675.78;;;16.20;99.90;;;;;;6311929;22;20054;-87
2023/09/08 02:05:03;;;;;;;705.25;657.70;;;16.10;99.90;;;;;;6285822;22;20392;-86
2023/09/08 02:07:29;;;;;;;696.85;650.10;;;16.10;99.90;;;;;;6339332;22;20021;-86
2023/09/08 02:09:55;;;;;;;364.00;344.38;;;16.10;99.90;;;;;;6286253;22;20023;-86
2023/09/08 02:12:21;;;;;;;394.63;373.02;;;16.00;99.90;;;;;;6311811;22;20023;-87
2023/09/08 02:14:47;;;;;;;702.00;655.03;;;16.00;99.90;;;;;;6286228;22;20025;-86
2023/09/08 02:17:13;;;;;;;676.25;631.00;;;16.00;99.90;;;;;;6311783;22;20093;-86
2023/09/08 02:19:39;;;;;;;344.13;325.63;;;16.00;99.90;;;;;;6311487;22;20159;-86
2023/09/08 02:22:05;;;;;;;676.47;630.92;;;15.90;99.90;;;;;;6339760;22;20018;-86
2023/09/08 02:24:33;;;;;;;339.02;320.88;;;15.90;99.90;;;;;;6311919;22;20010;-88
2023/09/08 02:27:15;;;;;;;386.83;363.85;;;15.80;99.90;;;;;;6312427;22;20026;-88
2023/09/08 02:29:41;;;;;;;731.67;681.85;;;15.80;99.90;;;;;;6285615;22;20456;-87
2023/09/08 02:32:07;;;;;;;375.52;353.58;;;15.80;99.90;;;;;;6285482;22;20014;-86
2023/09/08 02:34:38;;;;;;;351.45;332.25;;;15.70;99.90;;;;;;6311399;22;20019;-86
2023/09/08 02:37:04;;;;;;;628.67;587.42;;;15.70;99.90;;;;;;6311610;22;20014;-86
2023/09/08 02:39:30;;;;;;;569.70;533.28;;;15.70;99.90;;;;;;6338422;22;20054;-85
2023/09/08 02:41:56;;;;;;;574.92;537.10;;;15.70;99.90;;;;;;6339632;22;20038;-85
2023/09/08 02:44:22;;;;;;;583.08;545.58;;;15.70;99.90;;;;;;6312191;22;20023;-85
2023/09/08 02:46:48;;;;;;;603.80;563.80;;;15.60;99.90;;;;;;6339191;22;20054;-85
2023/09/08 02:49:13;;;;;;;311.13;295.00;;;15.60;99.90;;;;;;6285905;22;20023;-86
2023/09/08 02:51:39;;;;;;;567.28;529.50;;;15.70;99.90;;;;;;6311453;22;20006;-85
2023/09/08 02:54:05;;;;;;;583.42;545.58;;;15.60;99.90;;;;;;6339357;22;20059;-85
2023/09/08 02:56:31;;;;;;;584.17;545.42;;;15.60;99.90;;;;;;6311420;22;20015;-86
2023/09/08 02:58:56;;;;;;;567.08;530.00;;;15.60;99.90;;;;;;6339172;22;20017;-85
2023/09/08 03:01:22;;;;;;;305.67;289.85;;;15.60;99.90;;;;;;6338751;22;20006;-85
2023/09/08 03:03:48;;;;;;;313.48;297.02;;;15.60;99.90;;;;;;6339510;22;20060;-85
2023/09/08 03:06:15;;;;;;;653.45;610.05;;;15.60;99.90;;;;;;6311155;22;20014;-85
2023/09/08 03:08:41;;;;;;;341.40;322.70;;;15.50;99.90;;;;;;6339188;22;20019;-85
2023/09/08 03:11:08;;;;;;;672.90;627.75;;;15.50;99.90;;;;;;6311306;22;20075;-86
2023/09/08 03:13:34;;;;;;;690.47;644.05;;;15.50;99.90;;;;;;6339061;22;20026;-85
2023/09/08 03:16:05;;;;;;;338.98;320.52;;;15.50;99.90;;;;;;6311371;22;20034;-85
2023/09/08 03:18:36;;;;;;;329.85;311.52;;;15.50;99.90;;;;;;6311547;22;20348;-87
2023/09/08 03:21:09;;;;;;;366.05;344.85;;;15.50;99.90;;;;;;6311257;22;20388;-86
2023/09/08 03:23:42;;;;;;;388.33;363.65;;;15.40;99.90;;;;;;6311567;22;20019;-86
2023/09/08 03:26:11;;;;;;;720.55;669.45;;;15.40;99.90;;;;;;6311387;22;20022;-85
2023/09/08 03:28:41;;;;;;;733.33;678.35;;;15.40;99.90;;;;;;6311609;22;20015;-86
2023/09/08 03:31:07;;;;;;;413.33;381.65;;;15.50;99.90;;;;;;6311311;22;20014;-86
2023/09/08 03:33:33;;;;;;;422.95;391.02;;;15.30;99.90;;;;;;6310837;22;20384;-86
2023/09/08 03:35:59;;;;;;;441.38;401.20;;;15.30;99.90;;;;;;6311161;22;20068;-86
2023/09/08 03:38:24;;;;;;;485.45;427.55;;;15.30;99.90;;;;;;6339087;22;20328;-86
2023/09/08 03:40:50;;;;;;;749.17;674.72;;;15.30;99.90;;;;;;6339223;22;20509;-86
2023/09/08 03:43:16;;;;;;;569.00;441.73;;;15.30;99.90;;;;;;6338852;22;20044;-87
2023/09/08 03:45:42;;;;;;;533.72;427.55;;;15.30;99.90;;;;;;6339163;22;20054;-87
2023/09/08 03:48:08;;;;;;;749.35;674.10;;;15.20;99.90;;;;;;6338751;22;20512;-86
2023/09/08 03:50:35;;;;;;;529.65;432.17;;;15.20;99.90;;;;;;6310933;22;20050;-86
2023/09/08 03:53:00;;;;;;;764.92;691.45;;;15.20;99.90;;;;;;6338839;22;20082;-85
2023/09/08 03:55:26;;;;;;;786.05;704.25;;;15.20;99.90;;;;;;6310976;22;20456;-85
2023/09/08 03:57:52;;;;;;;792.47;689.08;;;15.20;99.90;;;;;;6311020;22;20065;-86
2023/09/08 04:00:21;;;;;;;831.63;684.25;;;15.10;99.90;;;;;;6338541;22;20015;-86
2023/09/08 04:02:49;;;;;;;714.92;458.17;;;15.10;99.90;;;;;;6338841;22;20025;-86
2023/09/08 04:05:18;;;;;;;741.88;458.75;;;15.10;99.90;;;;;;6310568;22;20022;-86
2023/09/08 04:07:45;;;;;;;912.75;697.35;;;15.00;99.90;;;;;;6284802;22;20021;-85
2023/09/08 04:10:11;;;;;;;735.30;467.08;;;15.00;99.90;;;;;;6338325;22;20518;-86
2023/09/08 04:12:37;;;;;;;785.75;464.77;;;15.00;99.90;;;;;;6310585;22;20022;-86
2023/09/08 04:15:03;;;;;;;796.92;470.75;;;14.90;99.90;;;;;;6285333;22;20014;-86
2023/09/08 04:17:29;;;;;;;854.70;478.20;;;15.00;99.90;;;;;;6311281;22;20015;-86
2023/09/08 04:19:54;;;;;;;831.13;468.20;;;14.90;99.90;;;;;;6310640;22;20015;-86
2023/09/08 04:22:20;;;;;;;852.58;474.10;;;14.90;99.90;;;;;;6338615;22;20072;-86
2023/09/08 04:24:46;;;;;;;1025.40;669.33;;;14.90;99.90;;;;;;6310979;22;20307;-86
2023/09/08 04:27:11;;;;;;;841.60;471.98;;;14.90;99.90;;;;;;6310642;22;20393;-86
2023/09/08 04:29:37;;;;;;;873.15;479.52;;;14.90;99.90;;;;;;6310995;22;20015;-86
2023/09/08 04:32:08;;;;;;;897.97;482.33;;;14.90;99.90;;;;;;6310790;22;20056;-86
2023/09/08 04:34:38;;;;;;;1010.25;676.63;;;14.80;99.90;;;;;;6338039;22;20506;-86
2023/09/08 04:37:04;;;;;;;1264.65;646.58;;;14.80;99.90;;;;;;6310485;22;20318;-85
2023/09/08 04:39:30;;;;;;;1112.75;504.58;;;14.80;99.90;;;;;;6338621;22;20057;-85
2023/09/08 04:41:56;;;;;;;1275.13;665.78;;;14.80;99.90;;;;;;6309476;22;20014;-86
2023/09/08 04:44:22;;;;;;;1277.03;650.03;;;14.80;99.90;;;;;;6309710;22;20014;-86
2023/09/08 04:46:48;;;;;;;1337.30;659.88;;;14.70;99.90;;;;;;6338458;22;20031;-86
2023/09/08 04:49:13;;;;;;;1211.53;512.83;;;14.70;99.90;;;;;;6310400;22;20136;-85
2023/09/08 04:51:39;;;;;;;1234.43;507.60;;;14.70;99.90;;;;;;6284367;22;20441;-86
2023/09/08 04:54:05;;;;;;;1387.40;631.55;;;14.70;99.90;;;;;;6310237;22;20022;-86
2023/09/08 04:56:31;;;;;;;1285.53;513.83;;;14.70;99.90;;;;;;6309986;22;20105;-86
2023/09/08 04:58:57;;;;;;;1372.57;538.03;;;14.70;99.90;;;;;;6337780;22;20023;-85
2023/09/08 05:01:23;;;;;;;1386.10;537.80;;;14.70;99.90;;;;;;6310213;22;20071;-86
2023/09/08 05:03:49;;;;;;;1403.32;544.38;;;14.60;99.90;;;;;;6310372;22;20089;-86
2023/09/08 05:06:15;;;;;;;1408.13;545.40;;;14.60;99.90;;;;;;6310002;22;20085;-86
2023/09/08 05:08:41;;;;;;;1480.73;667.80;;;14.60;99.90;;;;;;6338008;22;20026;-86
2023/09/08 05:11:06;;;;;;;1431.50;551.10;;;14.60;99.90;;;;;;6284560;22;20007;-85
2023/09/08 05:13:32;;;;;;;1486.03;650.53;;;14.60;99.90;;;;;;6309757;22;20019;-86
2023/09/08 05:16:10;;;;;;;1456.13;560.30;;;14.50;99.90;;;;;;6285587;22;20479;-86
2023/09/08 05:18:37;;;;;;;1484.00;656.70;;;14.50;99.90;;;;;;6339820;22;20068;-86
2023/09/08 05:21:02;;;;;;;1420.68;550.33;;;14.50;99.90;;;;;;6312437;22;20467;-86
2023/09/08 05:23:28;;;;;;;1462.65;629.95;;;14.60;99.90;;;;;;6311982;22;20019;-86
2023/09/08 05:25:54;;;;;;;1398.50;535.47;;;14.60;99.90;;;;;;6340014;22;20329;-86
2023/09/08 05:28:20;;;;;;;1475.15;640.15;;;14.60;99.90;;;;;;6312148;22;20014;-85
2023/09/08 05:30:51;;;;;;;1437.10;552.63;;;14.60;99.90;;;;;;6312154;22;20400;-86
2023/09/08 05:33:17;;;;;;;1484.50;649.03;;;14.60;99.90;;;;;;6311794;22;20029;-86
2023/09/08 05:35:43;;;;;;;1485.00;635.53;;;14.60;99.90;;;;;;6311987;22;20093;-86
2023/09/08 05:38:09;;;;;;;1440.47;553.25;;;14.60;99.90;;;;;;6339771;22;20375;-85
2023/09/08 05:40:35;;;;;;;1453.45;556.83;;;14.60;99.90;;;;;;6339867;22;20100;-86
2023/09/08 05:43:04;;;;;;;1410.47;548.55;;;14.70;99.90;;;;;;6339573;22;20037;-85
2023/09/08 05:45:32;;;;;;;1424.78;544.00;;;14.70;99.90;;;;;;6286220;22;20011;-86
2023/09/08 05:47:57;;;;;;;1481.47;645.88;;;14.70;99.90;;;;;;6339379;22;20018;-86
2023/09/08 05:50:23;;;;;;;1412.60;535.53;;;14.70;99.90;;;;;;6285944;22;20086;-86
2023/09/08 05:52:51;;;;;;;1484.82;656.35;;;14.80;99.90;;;;;;6312198;22;20674;-86
2023/09/08 05:55:17;;;;;;;1450.55;548.50;;;14.80;99.90;;;;;;6311654;22;20019;-86
2023/09/08 05:57:43;;;;;;;1428.00;543.40;;;14.90;99.90;;;;;;6339220;22;20068;-85
2023/09/08 06:00:09;;;;;;;1439.28;544.83;;;14.90;99.90;;;;;;6338826;22;20054;-85
2023/09/08 06:02:35;;;;;;;1423.72;544.97;;;15.00;99.90;;;;;;6311866;22;20075;-89
2023/09/08 06:05:01;;;;;;;1450.18;552.10;;;15.10;99.90;;;;;;6311955;22;20011;-86
2023/09/08 06:07:28;;;;;;;1450.40;548.80;;;15.10;99.90;;;;;;6285891;22;20054;-88
2023/09/08 06:09:53;;;;;;;1484.80;665.63;;;15.20;99.90;;;;;;6285766;22;20018;-85
2023/09/08 06:12:33;;;;;;;1485.40;664.35;;;15.30;99.90;;;;;;6312523;22;20337;-89
2023/09/08 06:15:06;;;;;;;1416.72;546.38;;;15.30;99.90;;;;;;6278361;22;20442;-91
2023/09/08 06:18:24;;;;;;;1384.35;542.10;;;15.50;99.90;;;;;;6279366;22;20509;-90
2023/09/08 06:54:00;;;;;;;1503.80;595.08;;;17.30;99.90;;;;;;6298929;22;20027;-90
2023/09/08 06:56:26;;;;;;;1439.03;693.70;;;17.50;99.90;;;;;;6314098;22;20043;-91
2023/09/08 06:58:52;;;;;;;1406.20;719.97;;;17.60;99.90;;;;;;6341738;22;20014;-89
2023/09/08 07:01:17;;;;;;;1338.53;715.60;;;17.80;99.90;;;;;;6314322;22;20011;-89
2023/09/08 07:03:43;;;;;;;1283.43;739.10;;;17.90;99.90;;;;;;6340750;22;20014;-85
2023/09/08 07:06:09;;;;;;;1095.63;555.25;;;18.00;99.90;;;;;;6285551;22;20022;-83
2023/09/08 07:08:34;;;;;;;1220.35;737.58;;;18.20;99.90;;;;;;6339193;22;20018;-84
2023/09/08 07:11:00;;;;;;;1194.78;756.22;;;18.30;99.90;;;;;;6311706;22;20050;-84
2023/09/08 07:13:26;;;;;;;1157.13;749.90;;;18.40;99.90;;;;;;6285611;22;20098;-85
2023/09/08 07:15:52;;;;;;;1109.25;751.33;;;18.50;99.90;;;;;;6339228;22;20018;-84
2023/09/08 07:18:17;;;;;;;921.75;538.50;;;18.70;99.90;;;;;;6311750;22;20014;-84
2023/09/08 07:20:48;;;;;;;950.30;547.45;;;18.80;99.90;;;;;;6338972;22;20144;-85
2023/09/08 07:23:14;;;;;;;921.08;546.72;;;19.00;99.90;;;;;;6310742;22;20019;-84
2023/09/08 07:25:44;;;;;;;1036.35;774.70;;;19.10;99.90;;;;;;6338961;22;20053;-83
2023/09/08 07:28:10;;;;;;;838.47;547.00;;;19.30;99.90;;;;;;6311134;22;20463;-83
2023/09/08 07:30:36;;;;;;;816.80;549.28;;;19.40;99.90;;;;;;6311474;22;20038;-84
2023/09/08 07:33:01;;;;;;;975.25;803.00;;;19.60;99.90;;;;;;6311718;22;20079;-84
2023/09/08 07:35:27;;;;;;;901.22;559.58;;;19.80;99.90;;;;;;6311253;22;20014;-83
2023/09/08 07:37:53;;;;;;;842.83;557.08;;;19.90;99.90;;;;;;6284964;22;20445;-83
2023/09/08 07:40:18;;;;;;;759.13;549.10;;;20.00;99.90;;;;;;6285389;22;20026;-84
2023/09/08 07:42:44;;;;;;;911.60;795.67;;;20.20;99.90;;;;;;6338882;22;20081;-83
2023/09/08 07:45:10;;;;;;;723.00;547.60;;;20.40;99.90;;;;;;6311523;22;20022;-84
2023/09/08 07:47:38;;;;;;;645.33;540.63;;;20.50;99.90;;;;;;6310976;22;20046;-84
2023/09/08 07:50:18;;;;;;;604.63;539.72;;;20.70;99.90;;;;;;6311031;22;20018;-83
2023/09/08 07:52:44;;;;;;;594.83;532.22;;;21.00;99.90;;;;;;6310741;22;20014;-83
2023/09/08 07:55:10;;;;;;;585.33;526.35;;;21.10;99.90;;;;;;6310586;22;20011;-83
2023/09/08 07:57:36;;;;;;;576.20;522.72;;;21.30;99.90;;;;;;6310784;22;20023;-84
2023/09/08 08:00:02;;;;;;;576.90;523.17;;;21.40;99.90;;;;;;6311151;22;20027;-83
2023/09/08 08:02:28;;;;;;;585.10;531.20;;;21.60;99.90;;;;;;6311020;22;20018;-84
2023/09/08 08:04:53;;;;;;;893.35;820.90;;;21.80;99.90;;;;;;6311199;22;20066;-84
2023/09/08 08:07:19;;;;;;;893.22;821.22;;;22.00;99.90;;;;;;6310627;22;20022;-84
2023/09/08 08:09:45;;;;;;;559.85;515.67;;;22.20;99.90;;;;;;6285069;22;20019;-84
2023/09/08 08:12:11;;;;;;;551.55;510.88;;;22.30;99.90;;;;;;6310875;22;20025;-84
2023/09/08 08:14:36;;;;;;;885.08;819.88;;;22.40;99.90;;;;;;6310702;22;20042;-84
2023/09/08 08:17:02;;;;;;;607.45;552.05;;;22.60;99.90;;;;;;6310626;22;20018;-84
2023/09/08 08:19:28;;;;;;;633.60;571.50;;;22.80;99.90;;;;;;6338091;22;20333;-85
2023/09/08 08:21:59;;;;;;;640.80;575.70;;;23.00;99.90;;;;;;6310675;22;20066;-85
2023/09/08 08:24:28;;;;;;;954.50;866.47;;;23.10;99.90;;;;;;6287525;22;20015;-92
2023/09/08 08:27:21;;;;;;;621.20;562.90;;;23.20;99.90;;;;;;6318562;22;20054;-92
2023/09/08 08:30:37;;;;;;;913.63;842.90;;;23.40;99.90;;;;;;6322998;22;20084;-90
2023/09/08 08:34:12;;;;;;;;;;;;;;;;;;;;;
2023/09/08 10:15:11;;;;;;;1162.47;997.58;;;28.90;99.90;;;;;;6289697;22;20507;-90
2023/09/08 10:24:58;;;;;;;971.38;743.78;;;29.00;99.90;;;;;;6310094;22;20027;-88
2023/09/08 10:27:51;;;;;;;;;;;;;;;;;;;;;
2023/09/08 10:37:02;;;;;;;997.10;738.30;;;29.40;99.90;;;;;;6043406;23;20022;-89
2023/09/08 10:49:56;;;;;;;1382.40;999.90;;;30.00;99.90;;;;;;6340546;22;20069;-88
2023/09/08 10:52:42;;;;;;;802.08;728.08;;;30.10;99.90;;;;;;6311905;22;20018;-93
2023/09/08 11:31:05;;;;;;;;;;;;;;;;;;;;;
2023/09/08 11:36:59;;;;;;;827.63;739.35;;;31.60;98.70;;;;;;6318381;22;20027;-87
2023/09/08 11:39:53;;;;;;;1137.85;999.90;;;31.60;98.60;;;;;;6311430;22;20022;-88
2023/09/08 11:42:47;;;;;;;1146.18;999.90;;;31.70;98.90;;;;;;6338020;22;20014;-89
2023/09/08 11:45:28;;;;;;;833.97;750.53;;;31.80;98.10;;;;;;6311582;22;20390;-88
2023/09/08 11:47:55;;;;;;;1135.00;999.90;;;31.90;98.10;;;;;;6311688;22;20018;-86
2023/09/08 11:50:26;;;;;;;1281.10;999.90;;;31.80;97.00;;;;;;6311773;22;20017;-86
2023/09/08 11:52:57;;;;;;;1041.38;764.55;;;31.80;97.70;;;;;;6311075;22;20023;-88
2023/09/08 11:55:26;;;;;;;1069.43;759.25;;;31.90;96.80;;;;;;6310534;22;20022;-88
2023/09/08 11:58:01;;;;;;;1051.85;757.58;;;31.90;96.80;;;;;;6311337;22;20014;-86
2023/09/08 12:00:27;;;;;;;1016.60;766.50;;;32.00;97.50;;;;;;6339383;22;20018;-86
2023/09/08 12:02:54;;;;;;;1003.28;763.17;;;32.10;96.30;;;;;;6311430;22;20029;-86
2023/09/08 12:05:50;;;;;;;995.17;765.13;;;32.20;97.20;;;;;;6338776;22;20341;-89
2023/09/08 12:08:18;;;;;;;1182.93;999.90;;;32.40;95.90;;;;;;6338536;22;20041;-89
2023/09/08 12:10:56;;;;;;;987.63;774.88;;;32.40;96.20;;;;;;6285199;22;20105;-90
2023/09/08 12:13:25;;;;;;;1026.35;767.40;;;32.50;95.00;;;;;;6285856;22;20025;-92
2023/09/08 12:23:00;;;;;;;1177.43;999.90;;;32.60;95.30;;;;;;6334194;22;20082;-89
2023/09/08 12:53:40;;;;;;;1184.78;815.65;;;32.90;94.20;;;;;;6305874;22;20429;-88
2023/09/08 12:56:06;;;;;;;;;;;32.80;93.30;;;;;;6284536;22;20019;-86
2023/09/08 12:59:36;;;;;;;;;;;;;;;;;;;;;
2023/09/08 13:02:42;;;;;;;;;;;;;;;;;;;;;
2023/09/08 13:16:43;;;;;;;1042.55;814.08;;;33.30;91.90;;;;;;6082369;22;20022;-88
2023/09/08 13:19:11;;;;;;;1248.65;999.90;;;33.10;92.10;;;;;;6338492;22;20334;-87
2023/09/08 13:21:47;;;;;;;1257.30;999.90;;;33.30;92.90;;;;;;6339075;22;20511;-88
2023/09/08 13:24:13;;;;;;;1264.13;999.90;;;33.30;91.80;;;;;;6284994;22;20015;-89
2023/09/08 13:26:39;;;;;;;1252.25;999.90;;;33.30;91.00;;;;;;6338883;22;20457;-92
2023/09/08 13:29:48;;;;;;;;;;;;;;;;;;;;;
2023/09/08 13:32:14;;;;;;;1027.90;804.40;;;33.10;91.90;;;;;;6310332;22;20054;-86
2023/09/08 13:34:51;;;;;;;1238.40;999.90;;;33.00;91.30;;;;;;6339290;22;20437;-93
2023/09/08 13:37:53;;;;;;;;;;;;;;;;;;;;;
2023/09/08 13:40:58;;;;;;;;;;;;;;;;;;;;;
2023/09/08 13:44:00;;;;;;;1360.50;999.90;;;33.20;92.60;;;;;;6088186;23;20021;-89
2023/09/08 13:47:08;;;;;;;;;;;;;;;;;;;;;
2023/09/08 13:50:00;;;;;;;1402.05;999.90;;;33.10;92.70;;;;;;6153397;23;20021;-90
2023/09/08 13:52:44;;;;;;;;;;;;;;;;;;;;;
2023/09/08 13:55:23;;;;;;;1241.18;812.58;;;33.20;91.90;;;;;;6036769;23;20021;-90
2023/09/08 13:58:01;;;;;;;1149.60;809.72;;;33.30;91.70;;;;;;6156603;23;20017;-88
2023/09/08 14:00:49;;;;;;;1482.25;808.58;;;33.40;93.40;;;;;;6156130;23;20081;-88
2023/09/08 14:06:57;;;;;;;1393.00;808.72;;;33.40;91.70;;;;;;6225588;22;20072;-88
2023/09/08 14:12:49;;;;;;;1431.55;999.90;;;33.30;91.50;;;;;;6183545;23;20025;-92
2023/09/08 14:15:16;;;;;;;1438.63;999.90;;;33.50;91.00;;;;;;6185214;22;20032;-88
2023/09/08 14:17:44;;;;;;;1438.55;999.90;;;33.40;91.70;;;;;;6161396;23;20095;-88
2023/09/08 14:20:10;;;;;;;1443.47;999.90;;;33.50;89.50;;;;;;6160922;23;20028;-88
2023/09/08 14:22:38;;;;;;;1403.13;818.42;;;33.50;90.80;;;;;;6160817;23;20103;-89
2023/09/08 14:25:10;;;;;;;1402.07;821.45;;;33.40;91.10;;;;;;6161557;23;20013;-89
2023/09/08 14:28:07;;;;;;;1394.50;818.53;;;33.40;91.70;;;;;;6136256;23;20116;-90
2023/09/08 14:30:35;;;;;;;1400.63;827.50;;;33.50;91.00;;;;;;6160742;23;20448;-91
2023/09/08 14:33:29;;;;;;;1383.50;811.67;;;33.40;91.30;;;;;;6160758;23;20024;-90
2023/09/08 14:36:04;;;;;;;1453.00;999.90;;;33.40;90.60;;;;;;6160917;23;20086;-88
2023/09/08 14:38:29;;;;;;;1397.68;999.90;;;33.20;90.00;;;;;;6161430;23;20013;-90
2023/09/08 15:00:09;;;;;;;1402.45;999.90;;;32.80;90.20;;;;;;6309959;22;20014;-88
2023/09/08 15:02:38;;;;;;;1364.10;999.90;;;32.70;91.40;;;;;;6306390;22;20015;-86
2023/09/08 15:05:05;;;;;;;1346.60;999.90;;;32.50;91.70;;;;;;6307836;22;20023;-87
2023/09/08 15:07:31;;;;;;;1339.90;999.90;;;32.50;91.90;;;;;;6307673;22;20047;-86
2023/09/08 15:09:57;;;;;;;1373.00;999.90;;;32.50;92.90;;;;;;6308480;22;20341;-87
2023/09/08 15:12:25;;;;;;;1332.75;999.90;;;32.40;92.10;;;;;;6306594;22;20049;-87
2023/09/08 15:14:56;;;;;;;1191.78;810.20;;;32.30;91.70;;;;;;6308680;22;20011;-87
2023/09/08 15:18:26;;;;;;;;;;;;;;;;;;;;;
2023/09/08 15:20:56;;;;;;;982.88;750.83;;;31.90;92.90;;;;;;6304601;22;20022;-88
2023/09/08 15:33:57;;;;;;;1140.60;999.90;;;30.60;93.20;;;;;;6337596;22;20023;-89
2023/09/08 15:36:41;;;;;;;;;;;;;;;;;;;;;
2023/09/08 15:40:13;;;;;;;;;;;;;;;;;;;;;
2023/09/08 15:43:07;;;;;;;;;;;;;;;;;;;;;
2023/09/08 15:46:28;;;;;;;;;;;;;;;;;;;;;
2023/09/08 15:49:04;;;;;;;869.00;736.03;;;30.00;94.60;;;;;;6110709;23;20024;-85
2023/09/08 15:51:50;;;;;;;;;;;;;;;;;;;;;
2023/09/08 15:54:42;;;;;;;;;;;;;;;;;;;;;
2023/09/08 15:57:11;;;;;;;794.72;715.67;;;29.70;95.90;;;;;;6156793;23;19920;-87
2023/09/08 15:59:38;;;;;;;795.28;719.13;;;29.60;95.30;;;;;;6157829;23;20080;-86
2023/09/08 16:02:29;;;;;;;1105.80;999.40;;;29.50;95.40;;;;;;6157669;23;20051;-87
2023/09/08 16:08:06;;;;;;;1091.63;991.80;;;29.30;95.50;;;;;;6099174;23;20104;-88
2023/09/08 16:10:34;;;;;;;794.67;716.67;;;29.20;96.60;;;;;;6097772;23;20402;-86
2023/09/08 16:13:05;;;;;;;1123.05;999.90;;;29.10;97.00;;;;;;6122990;23;20017;-86
2023/09/08 16:15:31;;;;;;;1123.00;999.08;;;29.10;97.50;;;;;;6074594;23;20061;-87
2023/09/08 16:17:59;;;;;;;1117.40;998.53;;;28.90;96.60;;;;;;6123245;23;20074;-87
2023/09/08 16:20:25;;;;;;;830.25;729.35;;;28.80;96.60;;;;;;6098814;23;20348;-87
2023/09/08 16:22:51;;;;;;;1113.68;996.70;;;28.70;96.60;;;;;;6074954;23;20484;-87
2023/09/08 16:29:34;;;;;;;833.15;726.83;;;28.60;97.00;;;;;;6212475;23;20015;-89
2023/09/08 16:36:01;;;;;;;1077.82;973.90;;;28.30;97.70;;;;;;6288569;22;20023;-93
2023/09/08 16:42:19;;;;;;;1105.35;987.10;;;28.10;97.90;;;;;;6274438;22;20381;-86
2023/09/08 16:44:53;;;;;;;800.30;713.95;;;28.00;97.20;;;;;;6274801;22;20023;-89
2023/09/08 16:51:14;;;;;;;1079.05;972.83;;;27.80;97.90;;;;;;6269467;22;20034;-89
2023/09/08 16:54:09;;;;;;;777.92;703.97;;;27.60;98.20;;;;;;6310312;22;20022;-88
2023/09/08 16:56:50;;;;;;;768.00;697.22;;;27.50;98.40;;;;;;6337758;22;20152;-88
2023/09/08 16:59:25;;;;;;;759.83;694.55;;;27.40;99.50;;;;;;6310652;22;20019;-87
2023/09/08 17:02:01;;;;;;;721.05;658.92;;;27.30;99.90;;;;;;6284773;22;20021;-87
2023/09/08 17:06:58;;;;;;;760.42;691.03;;;27.10;99.90;;;;;;6335443;22;20125;-88
2023/09/08 17:09:26;;;;;;;742.67;673.42;;;26.90;99.30;;;;;;6310165;22;20079;-86
2023/09/08 17:12:12;;;;;;;725.65;657.80;;;26.90;99.30;;;;;;6312614;22;20382;-87
2023/09/08 17:14:46;;;;;;;1072.63;971.88;;;26.80;99.80;;;;;;6312326;22;20075;-89
2023/09/08 17:17:34;;;;;;;1042.45;954.55;;;26.70;99.90;;;;;;6313122;22;20017;-87
2023/09/08 17:20:04;;;;;;;752.05;677.22;;;26.60;99.90;;;;;;6288502;22;20185;-86
2023/09/08 17:22:33;;;;;;;1052.80;958.75;;;26.50;99.90;;;;;;6343323;22;20077;-87
2023/09/08 17:24:58;;;;;;;766.90;693.60;;;26.40;99.90;;;;;;6291394;22;20022;-85
2023/09/08 17:27:32;;;;;;;756.53;679.75;;;26.30;99.90;;;;;;6295304;22;20022;-88
2023/09/08 17:32:54;;;;;;;734.15;656.95;;;26.10;99.90;;;;;;6201190;23;20463;-87
2023/09/08 17:35:20;;;;;;;1063.20;960.30;;;26.00;99.90;;;;;;6225820;23;20116;-86
2023/09/08 17:37:46;;;;;;;1069.90;967.53;;;25.90;99.90;;;;;;6200216;23;20072;-86
2023/09/08 17:40:14;;;;;;;753.42;669.40;;;25.80;99.90;;;;;;6198589;23;20027;-87
2023/09/08 17:42:40;;;;;;;782.85;664.72;;;25.70;99.90;;;;;;6200785;23;20054;-86
2023/09/08 17:45:33;;;;;;;781.03;662.17;;;25.60;99.90;;;;;;6198854;23;20024;-88
2023/09/08 17:48:01;;;;;;;1081.82;966.92;;;25.40;99.90;;;;;;6177554;23;20016;-87
2023/09/08 17:50:27;;;;;;;740.90;654.67;;;25.40;99.90;;;;;;6201297;23;20025;-87